sensor_id;sensor_type;location;lat;lon;timestamp;pressure;altitude;pressure_sealevel;temperature;humidity
7824;BME280;3957;48.61947800;9.05303100;2022-10-31T00:00:10;96550.16;;;9.86;100.00
7824;BME280;3957;48.61947800;9.05303100;2022-10-31T00:01:35;96544.63;;;9.87;100.00
7824;BME280;3957;48.61947800;9.05303100;2022-10-31T00:02:56;96547.13;;;9.89;100.00
7824;BME280;3957;48.61947800;9.05303100;2022-10-31T00:04:17;96549.78;;;9.89;100.00
7824;BME280;3957;48.61947800;9.05303100;2022-10-31T00:05:45;96555.03;;;9.82;100.00
7824;BME280;3957;48.61947800;9.05303100;2022-10-31T00:07:06;96551.91;;;9.79;100.00
7824;BME280;3957;48.61947800;9.05303100;2022-10-31T00:08:27;96551.28;;;9.77;100.00
7824;BME280;3957;48.61947800;9.05303100;2022-10-31T00:09:48;96551.47;;;9.75;100.00
7824;BME280;3957;48.61947800;9.05303100;2022-10-31T00:11:09;96547.97;;;9.75;100.00
7824;BME280;3957;48.61947800;9.05303100;2022-10-31T00:12:30;96549.81;;;9.74;100.00
7824;BME280;3957;48.61947800;9.05303100;2022-10-31T00:13:51;96549.81;;;9.74;100.00
7824;BME280;3957;48.61947800;9.05303100;2022-10-31T00:15:12;96550.81;;;9.73;100.00
7824;BME280;3957;48.61947800;9.05303100;2022-10-31T00:16:33;96551.00;;;9.72;100.00
7824;BME280;3957;48.61947800;9.05303100;2022-10-31T00:17:53;96550.81;;;9.73;100.00
7824;BME280;3957;48.61947800;9.05303100;2022-10-31T00:19:14;96549.16;;;9.72;100.00
7824;BME280;3957;48.61947800;9.05303100;2022-10-31T00:20:35;96553.88;;;9.70;100.00
7824;BME280;3957;48.61947800;9.05303100;2022-10-31T00:21:56;96553.06;;;9.69;100.00
7824;BME280;3957;48.61947800;9.05303100;2022-10-31T00:23:17;96549.72;;;9.67;100.00
7824;BME280;3957;48.61947800;9.05303100;2022-10-31T00:24:38;96551.78;;;9.65;100.00
7824;BME280;3957;48.61947800;9.05303100;2022-10-31T00:26:02;96547.97;;;9.60;100.00
7824;BME280;3957;48.61947800;9.05303100;2022-10-31T00:27:23;96543.84;;;9.57;100.00
7824;BME280;3957;48.61947800;9.05303100;2022-10-31T00:28:44;96544.84;;;9.56;100.00
7824;BME280;3957;48.61947800;9.05303100;2022-10-31T00:30:05;96551.41;;;9.53;100.00
7824;BME280;3957;48.61947800;9.05303100;2022-10-31T00:31:26;96547.91;;;9.53;100.00
7824;BME280;3957;48.61947800;9.05303100;2022-10-31T00:32:47;96543.56;;;9.52;100.00
7824;BME280;3957;48.61947800;9.05303100;2022-10-31T00:34:08;96550.94;;;9.50;100.00
7824;BME280;3957;48.61947800;9.05303100;2022-10-31T00:35:30;96548.25;;;9.50;100.00
7824;BME280;3957;48.61947800;9.05303100;2022-10-31T00:36:50;96545.78;;;9.48;100.00
7824;BME280;3957;48.61947800;9.05303100;2022-10-31T00:38:11;96541.09;;;9.50;100.00
7824;BME280;3957;48.61947800;9.05303100;2022-10-31T00:39:32;96540.25;;;9.50;100.00
7824;BME280;3957;48.61947800;9.05303100;2022-10-31T00:40:52;96551.59;;;9.52;100.00
7824;BME280;3957;48.61947800;9.05303100;2022-10-31T00:42:13;96542.56;;;9.53;100.00
7824;BME280;3957;48.61947800;9.05303100;2022-10-31T00:43:37;96547.06;;;9.52;100.00
7824;BME280;3957;48.61947800;9.05303100;2022-10-31T00:44:57;96549.91;;;9.51;100.00
7824;BME280;3957;48.61947800;9.05303100;2022-10-31T00:46:18;96547.44;;;9.49;100.00
7824;BME280;3957;48.61947800;9.05303100;2022-10-31T00:47:39;96545.78;;;9.48;100.00
7824;BME280;3957;48.61947800;9.05303100;2022-10-31T00:48:59;96544.38;;;9.52;100.00
7824;BME280;3957;48.61947800;9.05303100;2022-10-31T00:50:20;96550.59;;;9.53;100.00
7824;BME280;3957;48.61947800;9.05303100;2022-10-31T00:51:41;96546.06;;;9.53;100.00
7824;BME280;3957;48.61947800;9.05303100;2022-10-31T00:53:02;96546.06;;;9.53;100.00
7824;BME280;3957;48.61947800;9.05303100;2022-10-31T00:54:23;96545.59;;;9.50;100.00
7824;BME280;3957;48.61947800;9.05303100;2022-10-31T00:55:44;96544.97;;;9.48;100.00
7824;BME280;3957;48.61947800;9.05303100;2022-10-31T00:57:05;96545.44;;;9.51;100.00
7824;BME280;3957;48.61947800;9.05303100;2022-10-31T00:58:25;96551.22;;;9.55;100.00
7824;BME280;3957;48.61947800;9.05303100;2022-10-31T00:59:46;96545.88;;;9.55;100.00
7824;BME280;3957;48.61947800;9.05303100;2022-10-31T01:01:07;96541.53;;;9.54;100.00
7824;BME280;3957;48.61947800;9.05303100;2022-10-31T01:02:29;96542.56;;;9.53;100.00
7824;BME280;3957;48.61947800;9.05303100;2022-10-31T01:03:50;96538.22;;;9.52;100.00
7824;BME280;3957;48.61947800;9.05303100;2022-10-31T01:05:11;96541.91;;;9.51;100.00
7824;BME280;3957;48.61947800;9.05303100;2022-10-31T01:06:32;96544.97;;;9.48;100.00
7824;BME280;3957;48.61947800;9.05303100;2022-10-31T01:07:53;96551.69;;;9.44;100.00
7824;BME280;3957;48.61947800;9.05303100;2022-10-31T01:09:13;96543.88;;;9.42;100.00
7824;BME280;3957;48.61947800;9.05303100;2022-10-31T01:10:34;96543.75;;;9.35;100.00
7824;BME280;3957;48.61947800;9.05303100;2022-10-31T01:11:55;96545.97;;;9.32;100.00
7824;BME280;3957;48.61947800;9.05303100;2022-10-31T01:13:18;96552.97;;;9.33;100.00
7824;BME280;3957;48.61947800;9.05303100;2022-10-31T01:14:43;96547.16;;;9.29;100.00
7824;BME280;3957;48.61947800;9.05303100;2022-10-31T01:16:06;96541.56;;;9.24;100.00
7824;BME280;3957;48.61947800;9.05303100;2022-10-31T01:17:27;96549.09;;;9.21;100.00
7824;BME280;3957;48.61947800;9.05303100;2022-10-31T01:18:48;96542.28;;;9.18;100.00
7824;BME280;3957;48.61947800;9.05303100;2022-10-31T01:20:10;96544.13;;;9.17;100.00
7824;BME280;3957;48.61947800;9.05303100;2022-10-31T01:21:31;96534.00;;;9.28;100.00
7824;BME280;3957;48.61947800;9.05303100;2022-10-31T01:22:53;96540.63;;;9.32;100.00
7824;BME280;3957;48.61947800;9.05303100;2022-10-31T01:24:13;96539.25;;;9.36;100.00
7824;BME280;3957;48.61947800;9.05303100;2022-10-31T01:25:34;96534.38;;;9.40;100.00
7824;BME280;3957;48.61947800;9.05303100;2022-10-31T01:26:55;96533.38;;;9.41;100.00
7824;BME280;3957;48.61947800;9.05303100;2022-10-31T01:28:16;96534.38;;;9.40;100.00
7824;BME280;3957;48.61947800;9.05303100;2022-10-31T01:29:36;96537.94;;;9.32;100.00
7824;BME280;3957;48.61947800;9.05303100;2022-10-31T01:31:17;96542.66;;;9.30;100.00
7824;BME280;3957;48.61947800;9.05303100;2022-10-31T01:32:39;96536.31;;;9.31;100.00
7824;BME280;3957;48.61947800;9.05303100;2022-10-31T01:33:59;96542.84;;;9.28;100.00
7824;BME280;3957;48.61947800;9.05303100;2022-10-31T01:35:20;96537.50;;;9.28;100.00
7824;BME280;3957;48.61947800;9.05303100;2022-10-31T01:36:42;96536.84;;;9.26;100.00
7824;BME280;3957;48.61947800;9.05303100;2022-10-31T01:38:05;96539.91;;;9.23;100.00
7824;BME280;3957;48.61947800;9.05303100;2022-10-31T01:39:26;96531.88;;;9.23;100.00
7824;BME280;3957;48.61947800;9.05303100;2022-10-31T01:40:46;96530.78;;;9.17;100.00
7824;BME280;3957;48.61947800;9.05303100;2022-10-31T01:42:16;96532.34;;;9.12;100.00
7824;BME280;3957;48.61947800;9.05303100;2022-10-31T01:43:57;96529.69;;;9.12;100.00
7824;BME280;3957;48.61947800;9.05303100;2022-10-31T01:45:19;96535.22;;;9.10;100.00
7824;BME280;3957;48.61947800;9.05303100;2022-10-31T01:48:01;96530.69;;;9.11;100.00
7824;BME280;3957;48.61947800;9.05303100;2022-10-31T01:49:27;96528.19;;;9.09;100.00
7824;BME280;3957;48.61947800;9.05303100;2022-10-31T01:50:53;96519.38;;;9.09;100.00
7824;BME280;3957;48.61947800;9.05303100;2022-10-31T01:53:47;96529.03;;;9.10;100.00
7824;BME280;3957;48.61947800;9.05303100;2022-10-31T01:55:21;96529.50;;;9.13;100.00
7824;BME280;3957;48.61947800;9.05303100;2022-10-31T01:56:49;96525.53;;;9.09;100.00
7824;BME280;3957;48.61947800;9.05303100;2022-10-31T01:58:13;96526.53;;;9.08;100.00
7824;BME280;3957;48.61947800;9.05303100;2022-10-31T01:59:40;96521.56;;;9.05;100.00
7824;BME280;3957;48.61947800;9.05303100;2022-10-31T02:01:03;96519.09;;;9.04;100.00
7824;BME280;3957;48.61947800;9.05303100;2022-10-31T02:02:25;96521.09;;;9.01;100.00
7824;BME280;3957;48.61947800;9.05303100;2022-10-31T02:03:48;96517.81;;;8.99;100.00
7824;BME280;3957;48.61947800;9.05303100;2022-10-31T02:05:12;96516.78;;;9.00;100.00
7824;BME280;3957;48.61947800;9.05303100;2022-10-31T02:06:50;96518.00;;;8.98;100.00
7824;BME280;3957;48.61947800;9.05303100;2022-10-31T02:08:25;96527.19;;;8.95;100.00
7824;BME280;3957;48.61947800;9.05303100;2022-10-31T02:09:47;96520.38;;;8.93;100.00
7824;BME280;3957;48.61947800;9.05303100;2022-10-31T02:11:11;96514.03;;;8.94;100.00
7824;BME280;3957;48.61947800;9.05303100;2022-10-31T02:12:33;96510.69;;;8.92;100.00
7824;BME280;3957;48.61947800;9.05303100;2022-10-31T02:13:58;96521.75;;;8.89;100.00
7824;BME280;3957;48.61947800;9.05303100;2022-10-31T02:15:20;96521.13;;;8.87;100.00
7824;BME280;3957;48.61947800;9.05303100;2022-10-31T02:16:42;96520.25;;;8.86;100.00
7824;BME280;3957;48.61947800;9.05303100;2022-10-31T02:18:04;96516.13;;;8.83;100.00
7824;BME280;3957;48.61947800;9.05303100;2022-10-31T02:21:11;96522.38;;;8.76;100.00
7824;BME280;3957;48.61947800;9.05303100;2022-10-31T02:26:13;96528.91;;;8.73;100.00
7824;BME280;3957;48.61947800;9.05303100;2022-10-31T02:27:42;96525.22;;;8.74;100.00
7824;BME280;3957;48.61947800;9.05303100;2022-10-31T02:30:58;96517.41;;;8.88;100.00
7824;BME280;3957;48.61947800;9.05303100;2022-10-31T02:32:33;96523.31;;;8.98;100.00
7824;BME280;3957;48.61947800;9.05303100;2022-10-31T02:34:02;96520.19;;;8.94;100.00
7824;BME280;3957;48.61947800;9.05303100;2022-10-31T02:37:14;96506.53;;;8.89;100.00
7824;BME280;3957;48.61947800;9.05303100;2022-10-31T02:40:35;96520.25;;;8.86;100.00
7824;BME280;3957;48.61947800;9.05303100;2022-10-31T02:42:41;96510.97;;;8.82;100.00
7824;BME280;3957;48.61947800;9.05303100;2022-10-31T02:46:23;96519.44;;;8.85;100.00
7824;BME280;3957;48.61947800;9.05303100;2022-10-31T02:47:45;96517.88;;;8.91;100.00
7824;BME280;3957;48.61947800;9.05303100;2022-10-31T02:49:33;96510.88;;;8.90;100.00
7824;BME280;3957;48.61947800;9.05303100;2022-10-31T02:50:59;96509.69;;;8.93;100.00
7824;BME280;3957;48.61947800;9.05303100;2022-10-31T02:52:27;96508.22;;;8.90;100.00
7824;BME280;3957;48.61947800;9.05303100;2022-10-31T02:53:54;96515.94;;;8.85;100.00
7824;BME280;3957;48.61947800;9.05303100;2022-10-31T02:56:48;96519.97;;;8.81;100.00
7824;BME280;3957;48.61947800;9.05303100;2022-10-31T02:58:14;96508.03;;;8.92;100.00
7824;BME280;3957;48.61947800;9.05303100;2022-10-31T02:59:37;96509.41;;;9.02;100.00
7824;BME280;3957;48.61947800;9.05303100;2022-10-31T03:01:07;96505.84;;;9.10;100.00
7824;BME280;3957;48.61947800;9.05303100;2022-10-31T03:11:21;96504.44;;;8.99;100.00
7824;BME280;3957;48.61947800;9.05303100;2022-10-31T03:13:05;96507.94;;;9.00;100.00
7824;BME280;3957;48.61947800;9.05303100;2022-10-31T03:14:41;96504.28;;;9.01;100.00
7824;BME280;3957;48.61947800;9.05303100;2022-10-31T03:19:35;96504.19;;;9.09;100.00
7824;BME280;3957;48.61947800;9.05303100;2022-10-31T03:21:05;96509.34;;;9.11;100.00
7824;BME280;3957;48.61947800;9.05303100;2022-10-31T03:22:31;96508.03;;;9.07;100.00
7824;BME280;3957;48.61947800;9.05303100;2022-10-31T03:23:54;96506.75;;;9.02;100.00
7824;BME280;3957;48.61947800;9.05303100;2022-10-31T03:25:18;96499.13;;;8.99;100.00
7824;BME280;3957;48.61947800;9.05303100;2022-10-31T03:26:42;96500.88;;;8.92;100.00
7824;BME280;3957;48.61947800;9.05303100;2022-10-31T03:28:05;96500.69;;;8.94;100.00
7824;BME280;3957;48.61947800;9.05303100;2022-10-31T03:29:30;96502.50;;;8.93;100.00
7824;BME280;3957;48.61947800;9.05303100;2022-10-31T03:30:53;96503.34;;;8.94;100.00
7824;BME280;3957;48.61947800;9.05303100;2022-10-31T03:32:23;96505.16;;;8.93;100.00
7824;BME280;3957;48.61947800;9.05303100;2022-10-31T03:33:46;96510.97;;;8.97;100.00
7824;BME280;3957;48.61947800;9.05303100;2022-10-31T03:35:10;96513.66;;;8.97;100.00
7824;BME280;3957;48.61947800;9.05303100;2022-10-31T03:36:34;96507.13;;;8.99;100.00
7824;BME280;3957;48.61947800;9.05303100;2022-10-31T03:37:59;96505.16;;;8.93;100.00
7824;BME280;3957;48.61947800;9.05303100;2022-10-31T03:39:22;96507.22;;;8.91;100.00
7824;BME280;3957;48.61947800;9.05303100;2022-10-31T03:40:44;96501.88;;;8.91;100.00
7824;BME280;3957;48.61947800;9.05303100;2022-10-31T03:42:11;96508.78;;;8.85;100.00
7824;BME280;3957;48.61947800;9.05303100;2022-10-31T03:43:38;96502.97;;;8.82;100.00
7824;BME280;3957;48.61947800;9.05303100;2022-10-31T03:45:07;96510.97;;;8.82;100.00
7824;BME280;3957;48.61947800;9.05303100;2022-10-31T03:46:30;96503.63;;;8.84;100.00
7824;BME280;3957;48.61947800;9.05303100;2022-10-31T03:47:53;96498.47;;;8.82;100.00
7824;BME280;3957;48.61947800;9.05303100;2022-10-31T03:49:15;96509.97;;;8.83;100.00
7824;BME280;3957;48.61947800;9.05303100;2022-10-31T03:54:02;96503.06;;;8.89;100.00
7824;BME280;3957;48.61947800;9.05303100;2022-10-31T03:55:31;96508.41;;;8.89;100.00
7824;BME280;3957;48.61947800;9.05303100;2022-10-31T03:56:59;96509.22;;;8.89;100.00
7824;BME280;3957;48.61947800;9.05303100;2022-10-31T03:58:36;96505.34;;;8.92;100.00
7824;BME280;3957;48.61947800;9.05303100;2022-10-31T04:00:04;96500.22;;;8.90;100.00
7824;BME280;3957;48.61947800;9.05303100;2022-10-31T04:01:30;96500.13;;;8.98;100.00
7824;BME280;3957;48.61947800;9.05303100;2022-10-31T04:03:06;96494.22;;;9.03;100.00
7824;BME280;3957;48.61947800;9.05303100;2022-10-31T04:04:30;96502.59;;;9.00;100.00
7824;BME280;3957;48.61947800;9.05303100;2022-10-31T04:05:53;96497.25;;;9.00;100.00
7824;BME280;3957;48.61947800;9.05303100;2022-10-31T04:07:16;96497.94;;;9.02;100.00
7824;BME280;3957;48.61947800;9.05303100;2022-10-31T04:08:48;96496.88;;;9.03;100.00
7824;BME280;3957;48.61947800;9.05303100;2022-10-31T04:10:14;96498.75;;;9.02;100.00
7824;BME280;3957;48.61947800;9.05303100;2022-10-31T04:11:40;96491.75;;;9.01;100.00
7824;BME280;3957;48.61947800;9.05303100;2022-10-31T04:13:34;96491.09;;;8.99;100.00
7824;BME280;3957;48.61947800;9.05303100;2022-10-31T04:15:05;96488.44;;;8.99;100.00
7824;BME280;3957;48.61947800;9.05303100;2022-10-31T04:16:28;96494.59;;;9.00;100.00
7824;BME280;3957;48.61947800;9.05303100;2022-10-31T04:17:51;96495.59;;;8.99;100.00
7824;BME280;3957;48.61947800;9.05303100;2022-10-31T04:19:14;96491.09;;;8.99;100.00
7824;BME280;3957;48.61947800;9.05303100;2022-10-31T04:20:37;96494.97;;;8.97;100.00
7824;BME280;3957;48.61947800;9.05303100;2022-10-31T04:21:59;96490.53;;;8.89;100.00
7824;BME280;3957;48.61947800;9.05303100;2022-10-31T04:23:25;96491.91;;;8.85;100.00
7824;BME280;3957;48.61947800;9.05303100;2022-10-31T04:24:47;96488.31;;;8.78;100.00
7824;BME280;3957;48.61947800;9.05303100;2022-10-31T04:26:11;96495.03;;;8.74;100.00
7824;BME280;3957;48.61947800;9.05303100;2022-10-31T04:27:32;96489.78;;;8.65;100.00
7824;BME280;3957;48.61947800;9.05303100;2022-10-31T04:28:53;96484.72;;;8.56;100.00
7824;BME280;3957;48.61947800;9.05303100;2022-10-31T04:30:14;96494.25;;;8.50;100.00
7824;BME280;3957;48.61947800;9.05303100;2022-10-31T04:31:35;96486.97;;;8.44;100.00
7824;BME280;3957;48.61947800;9.05303100;2022-10-31T04:32:56;96489.34;;;8.39;100.00
7824;BME280;3957;48.61947800;9.05303100;2022-10-31T04:34:17;96486.56;;;8.32;100.00
7824;BME280;3957;48.61947800;9.05303100;2022-10-31T04:35:38;96483.59;;;8.27;100.00
7824;BME280;3957;48.61947800;9.05303100;2022-10-31T04:36:59;96486.44;;;8.25;100.00
7824;BME280;3957;48.61947800;9.05303100;2022-10-31T04:38:20;96484.50;;;8.19;100.00
7824;BME280;3957;48.61947800;9.05303100;2022-10-31T04:39:42;96478.88;;;8.14;100.00
7824;BME280;3957;48.61947800;9.05303100;2022-10-31T04:41:21;96483.91;;;8.09;100.00
7824;BME280;3957;48.61947800;9.05303100;2022-10-31T04:42:48;96479.94;;;8.05;100.00
7824;BME280;3957;48.61947800;9.05303100;2022-10-31T04:44:09;96481.13;;;8.02;100.00
7824;BME280;3957;48.61947800;9.05303100;2022-10-31T04:45:30;96481.97;;;8.03;100.00
7824;BME280;3957;48.61947800;9.05303100;2022-10-31T04:46:51;96477.28;;;8.05;100.00
7824;BME280;3957;48.61947800;9.05303100;2022-10-31T04:48:12;96477.28;;;8.05;100.00
7824;BME280;3957;48.61947800;9.05303100;2022-10-31T04:49:35;96476.44;;;8.04;100.00
7824;BME280;3957;48.61947800;9.05303100;2022-10-31T04:50:59;96473.31;;;8.00;100.00
7824;BME280;3957;48.61947800;9.05303100;2022-10-31T04:52:21;96487.00;;;7.97;100.00
7824;BME280;3957;48.61947800;9.05303100;2022-10-31T04:53:42;96482.03;;;7.94;100.00
7824;BME280;3957;48.61947800;9.05303100;2022-10-31T04:55:22;96479.72;;;7.91;100.00
7824;BME280;3957;48.61947800;9.05303100;2022-10-31T04:57:09;96480.91;;;7.89;100.00
7824;BME280;3957;48.61947800;9.05303100;2022-10-31T04:58:31;96476.94;;;7.85;100.00
7824;BME280;3957;48.61947800;9.05303100;2022-10-31T04:59:52;96478.09;;;7.82;100.00
7824;BME280;3957;48.61947800;9.05303100;2022-10-31T05:01:13;96477.63;;;7.78;100.00
7824;BME280;3957;48.61947800;9.05303100;2022-10-31T05:02:34;96474.13;;;7.78;100.00
7824;BME280;3957;48.61947800;9.05303100;2022-10-31T05:04:02;96474.50;;;7.75;100.00
7824;BME280;3957;48.61947800;9.05303100;2022-10-31T05:05:28;96467.50;;;7.74;100.00
7824;BME280;3957;48.61947800;9.05303100;2022-10-31T05:06:49;96470.16;;;7.74;100.00
7824;BME280;3957;48.61947800;9.05303100;2022-10-31T05:08:10;96471.34;;;7.71;100.00
7824;BME280;3957;48.61947800;9.05303100;2022-10-31T05:09:31;96473.34;;;7.69;100.00
7824;BME280;3957;48.61947800;9.05303100;2022-10-31T05:10:52;96472.34;;;7.70;100.00
7824;BME280;3957;48.61947800;9.05303100;2022-10-31T05:12:13;96472.69;;;7.67;100.00
7824;BME280;3957;48.61947800;9.05303100;2022-10-31T05:13:54;96469.38;;;7.65;100.00
7824;BME280;3957;48.61947800;9.05303100;2022-10-31T05:15:47;96460.06;;;7.61;100.00
7824;BME280;3957;48.61947800;9.05303100;2022-10-31T05:17:10;96460.06;;;7.61;100.00
7824;BME280;3957;48.61947800;9.05303100;2022-10-31T05:18:57;96461.28;;;7.58;100.00
7824;BME280;3957;48.61947800;9.05303100;2022-10-31T05:20:37;96462.91;;;7.59;100.00
7824;BME280;3957;48.61947800;9.05303100;2022-10-31T05:21:57;96465.41;;;7.61;100.00
7824;BME280;3957;48.61947800;9.05303100;2022-10-31T05:23:18;96472.03;;;7.65;100.00
7824;BME280;3957;48.61947800;9.05303100;2022-10-31T05:24:39;96462.22;;;7.65;100.00
7824;BME280;3957;48.61947800;9.05303100;2022-10-31T05:26:00;96465.19;;;7.71;100.00
7824;BME280;3957;48.61947800;9.05303100;2022-10-31T05:27:21;96464.53;;;7.69;100.00
7824;BME280;3957;48.61947800;9.05303100;2022-10-31T05:28:43;96463.88;;;7.66;100.00
7824;BME280;3957;48.61947800;9.05303100;2022-10-31T05:30:06;96467.25;;;7.60;100.00
7824;BME280;3957;48.61947800;9.05303100;2022-10-31T05:31:26;96460.59;;;7.56;100.00
7824;BME280;3957;48.61947800;9.05303100;2022-10-31T05:32:49;96461.31;;;7.50;100.00
7824;BME280;3957;48.61947800;9.05303100;2022-10-31T05:34:29;96466.03;;;7.40;100.00
7824;BME280;3957;48.61947800;9.05303100;2022-10-31T05:36:23;96459.56;;;7.34;100.00
7824;BME280;3957;48.61947800;9.05303100;2022-10-31T05:37:51;96458.25;;;7.30;100.00
7824;BME280;3957;48.61947800;9.05303100;2022-10-31T05:39:12;96458.25;;;7.30;100.00
7824;BME280;3957;48.61947800;9.05303100;2022-10-31T05:40:36;96466.06;;;7.31;100.00
7824;BME280;3957;48.61947800;9.05303100;2022-10-31T05:41:57;96461.69;;;7.39;100.00
7824;BME280;3957;48.61947800;9.05303100;2022-10-31T05:43:21;96465.03;;;7.41;100.00
7824;BME280;3957;48.61947800;9.05303100;2022-10-31T05:44:41;96456.19;;;7.48;100.00
7824;BME280;3957;48.61947800;9.05303100;2022-10-31T05:46:16;96462.13;;;7.51;100.00
7824;BME280;3957;48.61947800;9.05303100;2022-10-31T05:48:01;96457.25;;;7.62;100.00
7824;BME280;3957;48.61947800;9.05303100;2022-10-31T05:49:39;96452.03;;;7.69;100.00
7824;BME280;3957;48.61947800;9.05303100;2022-10-31T05:51:19;96459.69;;;7.72;100.00
7824;BME280;3957;48.61947800;9.05303100;2022-10-31T05:52:40;96450.53;;;7.75;100.00
7824;BME280;3957;48.61947800;9.05303100;2022-10-31T05:54:13;96459.69;;;7.72;100.00
7824;BME280;3957;48.61947800;9.05303100;2022-10-31T05:55:35;96463.34;;;7.71;100.00
7824;BME280;3957;48.61947800;9.05303100;2022-10-31T05:57:08;96449.22;;;7.71;100.00
7824;BME280;3957;48.61947800;9.05303100;2022-10-31T05:58:29;96462.53;;;7.71;100.00
7824;BME280;3957;48.61947800;9.05303100;2022-10-31T05:59:57;96461.19;;;7.75;100.00
7824;BME280;3957;48.61947800;9.05303100;2022-10-31T06:01:18;96451.66;;;7.80;100.00
7824;BME280;3957;48.61947800;9.05303100;2022-10-31T06:02:40;96458.22;;;7.93;100.00
7824;BME280;3957;48.61947800;9.05303100;2022-10-31T06:04:21;96453.72;;;7.93;100.00
7824;BME280;3957;48.61947800;9.05303100;2022-10-31T06:05:41;96449.31;;;8.00;100.00
7824;BME280;3957;48.61947800;9.05303100;2022-10-31T06:07:02;96457.59;;;8.06;100.00
7824;BME280;3957;48.61947800;9.05303100;2022-10-31T06:08:24;96444.59;;;8.11;100.00
7824;BME280;3957;48.61947800;9.05303100;2022-10-31T06:09:45;96454.00;;;8.22;100.00
7824;BME280;3957;48.61947800;9.05303100;2022-10-31T06:11:06;96453.25;;;8.28;100.00
7824;BME280;3957;48.61947800;9.05303100;2022-10-31T06:12:45;96447.03;;;8.36;100.00
7824;BME280;3957;48.61947800;9.05303100;2022-10-31T06:14:11;96446.84;;;8.37;100.00
7824;BME280;3957;48.61947800;9.05303100;2022-10-31T06:15:48;96445.81;;;8.38;100.00
7824;BME280;3957;48.61947800;9.05303100;2022-10-31T06:17:08;96444.19;;;8.37;100.00
7824;BME280;3957;48.61947800;9.05303100;2022-10-31T06:18:49;96442.53;;;8.36;100.00
7824;BME280;3957;48.61947800;9.05303100;2022-10-31T06:20:11;96446.66;;;8.39;100.00
7824;BME280;3957;48.61947800;9.05303100;2022-10-31T06:21:42;96446.31;;;8.42;100.00
7824;BME280;3957;48.61947800;9.05303100;2022-10-31T06:23:03;96448.97;;;8.42;100.00
7824;BME280;3957;48.61947800;9.05303100;2022-10-31T06:24:26;96445.97;;;8.45;100.00
7824;BME280;3957;48.61947800;9.05303100;2022-10-31T06:25:50;96450.28;;;8.46;100.00
7824;BME280;3957;48.61947800;9.05303100;2022-10-31T06:27:11;96444.59;;;8.49;100.00
7824;BME280;3957;48.61947800;9.05303100;2022-10-31T06:28:32;96448.28;;;8.48;100.00
7824;BME280;3957;48.61947800;9.05303100;2022-10-31T06:30:08;96449.63;;;8.44;100.00
7824;BME280;3957;48.61947800;9.05303100;2022-10-31T06:31:30;96452.19;;;8.37;100.00
7824;BME280;3957;48.61947800;9.05303100;2022-10-31T06:32:51;96454.38;;;8.33;100.00
7824;BME280;3957;48.61947800;9.05303100;2022-10-31T06:34:14;96451.06;;;8.31;100.00
7824;BME280;3957;48.61947800;9.05303100;2022-10-31T06:35:35;96450.72;;;8.34;100.00
7824;BME280;3957;48.61947800;9.05303100;2022-10-31T06:36:56;96456.22;;;8.33;100.00
7824;BME280;3957;48.61947800;9.05303100;2022-10-31T06:38:19;96451.06;;;8.31;100.00
7824;BME280;3957;48.61947800;9.05303100;2022-10-31T06:39:40;96449.41;;;8.30;100.00
7824;BME280;3957;48.61947800;9.05303100;2022-10-31T06:41:07;96456.56;;;8.30;100.00
7824;BME280;3957;48.61947800;9.05303100;2022-10-31T06:42:39;96448.41;;;8.31;100.00
7824;BME280;3957;48.61947800;9.05303100;2022-10-31T06:43:59;96458.22;;;8.31;100.00
7824;BME280;3957;48.61947800;9.05303100;2022-10-31T06:45:38;96453.75;;;8.31;100.00
7824;BME280;3957;48.61947800;9.05303100;2022-10-31T06:47:19;96448.75;;;8.28;100.00
7824;BME280;3957;48.61947800;9.05303100;2022-10-31T06:48:51;96448.75;;;8.28;100.00
7824;BME280;3957;48.61947800;9.05303100;2022-10-31T06:50:26;96453.75;;;8.31;100.00
7824;BME280;3957;48.61947800;9.05303100;2022-10-31T06:51:48;96450.03;;;8.32;100.00
7824;BME280;3957;48.61947800;9.05303100;2022-10-31T06:53:10;96448.22;;;8.33;100.00
7824;BME280;3957;48.61947800;9.05303100;2022-10-31T06:54:31;96449.84;;;8.34;100.00
7824;BME280;3957;48.61947800;9.05303100;2022-10-31T06:55:52;96446.19;;;8.35;100.00
7824;BME280;3957;48.61947800;9.05303100;2022-10-31T06:57:13;96450.53;;;8.36;100.00
7824;BME280;3957;48.61947800;9.05303100;2022-10-31T06:58:34;96445.81;;;8.38;100.00
7824;BME280;3957;48.61947800;9.05303100;2022-10-31T06:59:57;96450.53;;;8.36;100.00
7824;BME280;3957;48.61947800;9.05303100;2022-10-31T07:01:38;96457.34;;;8.39;100.00
7824;BME280;3957;48.61947800;9.05303100;2022-10-31T07:03:01;96449.78;;;8.42;100.00
7824;BME280;3957;48.61947800;9.05303100;2022-10-31T07:04:23;96443.28;;;8.45;100.00
7824;BME280;3957;48.61947800;9.05303100;2022-10-31T07:05:45;96446.25;;;8.50;100.00
7824;BME280;3957;48.61947800;9.05303100;2022-10-31T07:07:08;96445.53;;;8.56;100.00
7824;BME280;3957;48.61947800;9.05303100;2022-10-31T07:08:30;96447.66;;;8.61;100.00
7824;BME280;3957;48.61947800;9.05303100;2022-10-31T07:09:52;96450.41;;;8.67;100.00
7824;BME280;3957;48.61947800;9.05303100;2022-10-31T07:11:24;96451.53;;;8.73;100.00
7824;BME280;3957;48.61947800;9.05303100;2022-10-31T07:12:44;96455.94;;;8.81;100.00
7824;BME280;3957;48.61947800;9.05303100;2022-10-31T07:14:05;96450.50;;;8.89;100.00
7824;BME280;3957;48.61947800;9.05303100;2022-10-31T07:15:28;96450.59;;;8.96;100.00
7824;BME280;3957;48.61947800;9.05303100;2022-10-31T07:16:52;96448.03;;;9.02;100.00
7824;BME280;3957;48.61947800;9.05303100;2022-10-31T07:18:19;96444.88;;;9.14;100.00
7824;BME280;3957;48.61947800;9.05303100;2022-10-31T07:19:42;96452.97;;;9.21;100.00